createdAt,value
2023-04-10T00:00:31.481Z,30.88
2023-04-10T00:03:01.424Z,27.88
2023-04-10T00:05:29.543Z,29.55
2023-04-10T00:07:57.393Z,29.27
2023-04-10T00:10:26.512Z,27.25
2023-04-10T00:12:56.692Z,28.45
2023-04-10T00:15:24.779Z,30.95
2023-04-10T00:17:55.193Z,29.38
2023-04-10T00:20:23.651Z,25.42
2023-04-10T00:22:51.478Z,33.13
2023-04-10T00:25:19.608Z,28.58
2023-04-10T00:27:47.458Z,30.60
2023-04-10T00:30:16.995Z,30.42
2023-04-10T00:32:45.021Z,31.33
2023-04-10T00:35:12.852Z,29.00
2023-04-10T00:37:41.635Z,34.28
2023-04-10T00:40:10.305Z,25.20
2023-04-10T00:42:38.399Z,27.80
2023-04-10T00:45:08.516Z,29.60
2023-04-10T00:47:38.747Z,32.50
2023-04-10T00:50:07.776Z,24.33
2023-04-10T00:52:36.302Z,31.23
2023-04-10T00:55:04.933Z,31.63
2023-04-10T00:57:34.385Z,25.48
2023-04-10T01:00:03.017Z,32.60
2023-04-10T01:02:32.294Z,27.30
2023-04-10T01:05:02.295Z,31.08
2023-04-10T01:07:46.494Z,30.27
2023-04-10T01:10:19.597Z,28.10
2023-04-10T01:13:00.948Z,35.05
2023-04-10T01:15:32.893Z,23.50
2023-04-10T01:18:05.576Z,32.65
2023-04-10T01:20:39.307Z,24.13
2023-04-10T01:23:28.713Z,28.25
2023-04-10T01:26:00.101Z,31.45
2023-04-10T01:28:53.223Z,28.05
2023-04-10T01:31:27.347Z,17.00
2023-04-10T01:34:01.163Z,26.95
2023-04-10T01:36:37.125Z,25.15
2023-04-10T01:39:06.742Z,23.80
2023-04-10T01:41:35.196Z,25.90
2023-04-10T01:44:07.089Z,27.55
2023-04-10T01:46:35.285Z,28.90
2023-04-10T01:49:04.252Z,25.70
2023-04-10T01:51:35.430Z,29.48
2023-04-10T01:54:10.120Z,26.20
2023-04-10T01:56:39.526Z,23.35
2023-04-10T01:59:08.991Z,27.60
2023-04-10T02:01:37.002Z,25.30
2023-04-10T02:04:05.069Z,29.55
2023-04-10T02:06:49.573Z,30.70
2023-04-10T02:09:22.950Z,27.65
2023-04-10T02:14:28.515Z,31.47
2023-04-10T02:16:57.459Z,27.50
2023-04-10T02:19:28.059Z,27.45
2023-04-10T02:21:58.064Z,24.27
2023-04-10T02:24:28.052Z,27.48
2023-04-10T02:26:55.895Z,29.50
2023-04-10T02:29:25.930Z,29.15
2023-04-10T02:31:54.004Z,39.88
2023-04-10T02:34:21.987Z,34.00
2023-04-10T02:36:49.814Z,30.02
2023-04-10T02:39:17.667Z,28.83
2023-04-10T02:41:51.842Z,26.80
2023-04-10T02:44:19.782Z,28.30
2023-04-10T02:46:49.096Z,33.40
2023-04-10T02:49:17.840Z,29.63
2023-04-10T02:51:46.167Z,33.53
2023-04-10T02:54:14.199Z,30.45
2023-04-10T02:56:43.707Z,35.72
2023-04-10T02:59:11.567Z,26.92
2023-04-10T03:01:40.805Z,32.60
2023-04-10T03:04:10.390Z,29.98
2023-04-10T03:06:40.929Z,32.15
2023-04-10T03:09:08.899Z,33.88
2023-04-10T03:11:36.820Z,29.67
2023-04-10T03:14:05.724Z,30.10
2023-04-10T03:16:33.721Z,34.63
2023-04-10T03:19:04.280Z,32.47
2023-04-10T03:21:33.829Z,29.90
2023-04-10T03:24:02.753Z,29.27
2023-04-10T03:26:30.743Z,30.33
2023-04-10T03:28:58.914Z,31.95
2023-04-10T03:31:26.793Z,30.95
2023-04-10T03:33:58.518Z,30.58
2023-04-10T03:36:27.451Z,36.22
2023-04-10T03:38:56.763Z,37.15
2023-04-10T03:41:25.757Z,36.88
2023-04-10T03:43:54.315Z,33.17
2023-04-10T03:46:22.781Z,35.25
2023-04-10T03:48:53.800Z,36.75
2023-04-10T03:51:23.461Z,34.10
2023-04-10T03:53:52.308Z,34.22
2023-04-10T03:56:22.574Z,33.45
2023-04-10T03:58:50.613Z,29.90
2023-04-10T04:01:18.503Z,35.42
2023-04-10T04:03:58.581Z,32.60
2023-04-10T04:06:56.065Z,39.70
2023-04-10T04:09:26.545Z,36.92
2023-04-10T04:12:06.125Z,42.00
2023-04-10T04:14:57.706Z,34.60
2023-04-10T04:17:46.290Z,42.60
2023-04-10T04:20:32.894Z,38.70
2023-04-10T04:23:03.509Z,39.22
2023-04-10T04:25:52.700Z,37.15
2023-04-10T04:28:40.579Z,33.65
2023-04-10T04:31:17.308Z,34.90
2023-04-10T04:34:03.587Z,39.55
2023-04-10T04:37:05.447Z,35.92
2023-04-10T04:39:41.591Z,37.60
2023-04-10T04:42:41.567Z,38.85
2023-04-10T04:45:18.225Z,40.30
2023-04-10T04:48:06.277Z,41.17
2023-04-10T04:50:56.951Z,40.88
2023-04-10T04:53:41.547Z,36.10
2023-04-10T04:56:27.775Z,42.38
2023-04-10T04:59:24.774Z,38.33
2023-04-10T05:02:22.499Z,38.38
2023-04-10T05:05:10.263Z,38.67
2023-04-10T05:07:56.500Z,35.70
2023-04-10T05:10:46.553Z,38.90
2023-04-10T05:13:43.549Z,42.97
2023-04-10T05:16:34.314Z,40.58
2023-04-10T05:19:18.688Z,39.78
2023-04-10T05:22:15.834Z,47.05
2023-04-10T05:25:05.618Z,38.03
2023-04-10T05:27:42.236Z,45.78
2023-04-10T05:33:12.198Z,40.25
2023-04-10T05:36:05.889Z,40.95
2023-04-10T05:38:41.108Z,36.92
2023-04-10T05:41:27.749Z,34.15
2023-04-10T05:44:18.464Z,39.53
2023-04-10T05:47:06.105Z,34.83
2023-04-10T05:49:39.576Z,39.25
2023-04-10T05:52:17.772Z,42.60
2023-04-10T05:54:51.831Z,34.40
2023-04-10T05:57:38.063Z,36.15
2023-04-10T06:00:28.512Z,33.67
2023-04-10T06:03:30.578Z,27.55
2023-04-10T06:06:03.440Z,34.15
2023-04-10T06:08:34.689Z,34.20
2023-04-10T06:11:02.718Z,38.97
2023-04-10T06:13:33.377Z,31.45
2023-04-10T06:16:03.110Z,31.88
2023-04-10T06:18:32.328Z,34.75
2023-04-10T06:21:02.021Z,32.95
2023-04-10T06:23:30.550Z,30.25
2023-04-10T06:26:00.127Z,34.67
2023-04-10T06:28:28.195Z,32.17
2023-04-10T06:31:03.420Z,33.22
2023-04-10T06:33:36.618Z,31.80
2023-04-10T06:36:06.947Z,33.30
2023-04-10T06:38:39.876Z,30.52
2023-04-10T06:41:10.437Z,30.42
2023-04-10T06:43:41.188Z,32.25
2023-04-10T06:46:09.123Z,34.85
2023-04-10T06:48:36.924Z,35.45
2023-04-10T06:51:05.285Z,39.28
2023-04-10T06:53:33.160Z,34.30
2023-04-10T06:56:03.423Z,41.45
2023-04-10T06:58:33.021Z,46.63
2023-04-10T07:01:04.435Z,41.92
2023-04-10T07:03:33.795Z,42.50
2023-04-10T07:06:03.192Z,39.35
2023-04-10T07:08:31.156Z,38.33
2023-04-10T07:10:59.127Z,37.05
2023-04-10T07:13:27.008Z,38.47
2023-04-10T07:15:56.267Z,44.75
2023-04-10T07:18:24.127Z,46.70
2023-04-10T07:20:52.430Z,44.42
2023-04-10T07:23:20.488Z,45.22
2023-04-10T07:25:48.355Z,47.45
2023-04-10T07:28:16.255Z,46.72
2023-04-10T07:30:44.094Z,44.58
2023-04-10T07:33:13.563Z,49.03
2023-04-10T07:35:41.668Z,51.50
2023-04-10T07:38:09.541Z,48.38
2023-04-10T07:40:37.368Z,51.13
2023-04-10T07:43:05.354Z,53.33
2023-04-10T07:45:33.712Z,47.90
2023-04-10T07:48:02.702Z,57.10
2023-04-10T07:50:31.963Z,45.40
2023-04-10T07:53:03.459Z,51.00
2023-04-10T07:55:31.422Z,50.92
2023-04-10T07:57:59.300Z,46.30
2023-04-10T08:00:27.115Z,45.05
2023-04-10T08:02:55.208Z,48.97
2023-04-10T08:05:23.379Z,50.47
2023-04-10T08:07:52.700Z,47.88
2023-04-10T08:10:20.627Z,44.58
2023-04-10T08:12:48.484Z,39.50
2023-04-10T08:15:16.330Z,39.90
2023-04-10T08:17:44.212Z,47.40
2023-04-10T08:20:13.162Z,46.28
2023-04-10T08:22:41.036Z,34.65
2023-04-10T08:25:11.140Z,41.63
2023-04-10T08:27:39.032Z,42.58
2023-04-10T08:30:08.230Z,43.20
2023-04-10T08:32:37.486Z,36.90
2023-04-10T08:35:06.079Z,36.03
2023-04-10T08:37:33.916Z,44.20
2023-04-10T08:40:01.744Z,35.53
2023-04-10T08:42:33.459Z,36.63
2023-04-10T08:45:02.486Z,40.53
2023-04-10T08:47:36.588Z,34.97
2023-04-10T08:50:08.606Z,39.42
2023-04-10T08:52:43.805Z,38.90
2023-04-10T08:55:14.384Z,39.08
2023-04-10T08:57:50.800Z,36.33
2023-04-10T09:00:23.559Z,34.78
2023-04-10T09:02:57.945Z,39.95
2023-04-10T09:05:27.950Z,37.80
2023-04-10T09:07:55.926Z,33.67
2023-04-10T09:10:23.949Z,33.00
2023-04-10T09:12:53.682Z,37.03
2023-04-10T09:15:21.565Z,36.72
2023-04-10T09:18:00.350Z,34.22
2023-04-10T09:20:31.240Z,36.25
2023-04-10T09:22:59.345Z,41.30
2023-04-10T09:25:33.944Z,36.95
2023-04-10T09:28:05.123Z,34.47
2023-04-10T09:30:37.791Z,33.03
2023-04-10T09:33:23.548Z,29.58
2023-04-10T09:35:51.883Z,27.25
2023-04-10T09:38:21.104Z,22.40
2023-04-10T09:40:49.855Z,21.77
2023-04-10T09:43:24.325Z,25.02
2023-04-10T09:45:54.147Z,22.17
2023-04-10T09:48:22.885Z,23.42
2023-04-10T09:50:51.414Z,29.42
2023-04-10T09:53:21.168Z,26.10
2023-04-10T09:55:50.342Z,23.60
2023-04-10T09:58:19.032Z,20.42
2023-04-10T10:00:49.812Z,21.63
2023-04-10T10:03:19.687Z,23.42
2023-04-10T10:05:50.424Z,24.08
2023-04-10T10:08:18.939Z,24.15
2023-04-10T10:10:49.003Z,23.02
2023-04-10T10:13:21.590Z,18.50
2023-04-10T10:15:59.430Z,19.08
2023-04-10T10:18:38.334Z,20.75
2023-04-10T10:21:06.990Z,19.23
2023-04-10T10:23:35.408Z,19.88
2023-04-10T10:26:06.706Z,21.10
2023-04-10T10:28:35.002Z,20.08
2023-04-10T10:31:05.843Z,17.17
2023-04-10T10:33:36.986Z,19.70
2023-04-10T10:36:06.044Z,18.85
2023-04-10T10:38:34.680Z,20.42
2023-04-10T10:41:10.479Z,17.88
2023-04-10T10:43:51.775Z,18.73
2023-04-10T10:46:30.349Z,20.15
2023-04-10T10:48:58.780Z,17.88
2023-04-10T10:51:44.386Z,16.20
2023-04-10T10:54:32.459Z,17.58
2023-04-10T10:57:01.048Z,20.33
2023-04-10T10:59:56.775Z,19.55
2023-04-10T11:02:26.265Z,16.30
2023-04-10T11:04:54.201Z,20.40
2023-04-10T11:07:22.202Z,18.65
2023-04-10T11:09:54.616Z,18.38
2023-04-10T11:12:24.452Z,17.40
2023-04-10T11:15:00.339Z,22.33
2023-04-10T11:17:52.139Z,16.85
2023-04-10T11:20:22.079Z,16.80
2023-04-10T11:23:12.677Z,14.70
2023-04-10T11:25:51.304Z,14.35
2023-04-10T11:28:40.764Z,14.70
2023-04-10T11:31:19.711Z,13.60
2023-04-10T11:33:50.029Z,15.45
2023-04-10T11:36:18.649Z,17.80
2023-04-10T11:39:00.450Z,18.35
2023-04-10T11:41:30.644Z,13.30
2023-04-10T11:43:59.390Z,13.27
2023-04-10T11:46:27.572Z,12.63
2023-04-10T11:48:58.495Z,14.85
2023-04-10T11:51:27.234Z,15.70
2023-04-10T11:54:06.214Z,17.38
2023-04-10T11:56:34.154Z,14.05
2023-04-10T11:59:02.677Z,17.67
2023-04-10T12:01:30.573Z,15.82
2023-04-10T12:04:01.079Z,16.42
2023-04-10T12:06:29.561Z,15.32
2023-04-10T12:08:57.764Z,14.32
2023-04-10T12:11:28.709Z,13.43
2023-04-10T12:13:58.881Z,15.65
2023-04-10T12:16:27.420Z,14.10
2023-04-10T12:18:56.199Z,14.05
2023-04-10T12:21:26.261Z,13.95
2023-04-10T12:23:54.299Z,16.92
2023-04-10T12:26:22.247Z,14.98
2023-04-10T12:28:54.659Z,14.10
2023-04-10T12:31:29.078Z,12.73
2023-04-10T12:33:58.055Z,15.02
2023-04-10T12:36:30.163Z,14.55
2023-04-10T12:38:58.766Z,12.57
2023-04-10T12:41:28.204Z,13.40
2023-04-10T12:44:08.226Z,8.77
2023-04-10T12:46:36.716Z,8.82
2023-04-10T12:49:13.153Z,11.10
2023-04-10T12:51:46.670Z,8.80
2023-04-10T12:54:29.324Z,7.13
2023-04-10T12:56:57.694Z,8.53
2023-04-10T12:59:26.477Z,12.55
2023-04-10T13:01:55.161Z,8.95
2023-04-10T13:04:23.959Z,8.65
2023-04-10T13:06:53.758Z,8.35
2023-04-10T13:09:21.854Z,9.25
2023-04-10T13:11:51.670Z,10.82
2023-04-10T13:14:20.103Z,11.45
2023-04-10T13:16:48.013Z,8.45
2023-04-10T13:19:16.115Z,10.75
2023-04-10T13:21:43.981Z,12.70
2023-04-10T13:24:15.320Z,14.40
2023-04-10T13:26:44.669Z,17.48
2023-04-10T13:29:12.554Z,13.57
2023-04-10T13:31:40.607Z,13.38
2023-04-10T13:34:08.463Z,17.45
2023-04-10T13:36:36.370Z,14.77
2023-04-10T13:39:04.491Z,14.60
2023-04-10T13:41:33.842Z,16.60
2023-04-10T13:44:01.724Z,13.32
2023-04-10T13:46:29.912Z,12.38
2023-04-10T13:48:58.582Z,10.77
2023-04-10T13:51:27.834Z,11.40
2023-04-10T13:53:56.237Z,14.90
2023-04-10T13:56:24.466Z,12.82
2023-04-10T13:58:54.102Z,11.30
2023-04-10T14:01:22.368Z,12.63
2023-04-10T14:03:50.504Z,12.65
2023-04-10T14:06:18.358Z,12.65
2023-04-10T14:08:46.248Z,12.88
2023-04-10T14:11:14.070Z,13.50
2023-04-10T14:13:41.928Z,11.35
2023-04-10T14:16:11.857Z,9.60
2023-04-10T14:18:39.773Z,10.85
2023-04-10T14:21:08.196Z,10.10
2023-04-10T14:23:36.042Z,17.80
2023-04-10T14:26:05.830Z,11.25
2023-04-10T14:28:33.779Z,12.40
2023-04-10T14:31:01.888Z,12.55
2023-04-10T14:33:31.223Z,11.25
2023-04-10T14:35:59.129Z,11.65
2023-04-10T14:38:26.979Z,8.52
2023-04-10T14:40:55.275Z,10.70
2023-04-10T14:43:23.147Z,10.85
2023-04-10T14:45:51.016Z,14.25
2023-04-10T14:48:19.834Z,13.50
2023-04-10T14:50:49.545Z,12.40
2023-04-10T14:53:17.510Z,12.02
2023-04-10T14:55:45.346Z,11.38
2023-04-10T14:58:13.194Z,13.18
2023-04-10T15:00:41.082Z,12.70
2023-04-10T15:03:09.045Z,11.85
2023-04-10T15:05:36.922Z,13.10
2023-04-10T15:08:06.262Z,11.63
2023-04-10T15:10:34.108Z,10.50
2023-04-10T15:13:02.024Z,9.43
2023-04-10T15:15:29.935Z,11.60
2023-04-10T15:17:57.815Z,12.40
2023-04-10T15:20:25.751Z,12.15
2023-04-10T15:22:53.541Z,12.57
2023-04-10T15:25:23.068Z,12.93
2023-04-10T15:27:50.907Z,10.32
2023-04-10T15:30:19.230Z,11.60
2023-04-10T15:32:47.075Z,10.27
2023-04-10T15:35:15.031Z,10.60
2023-04-10T15:37:42.915Z,16.05
2023-04-10T15:40:11.441Z,11.73
2023-04-10T15:42:40.648Z,12.23
2023-04-10T15:45:08.994Z,10.68
2023-04-10T15:47:36.898Z,11.02
2023-04-10T15:50:05.384Z,11.07
2023-04-10T15:52:33.873Z,12.02
2023-04-10T15:55:01.738Z,12.60
2023-04-10T15:57:29.643Z,13.70
2023-04-10T16:00:00.616Z,15.50
2023-04-10T16:02:28.998Z,10.27
2023-04-10T16:04:57.018Z,9.00
2023-04-10T16:07:25.082Z,9.25
2023-04-10T16:09:55.107Z,8.85
2023-04-10T16:12:23.029Z,10.15
2023-04-10T16:14:50.823Z,10.13
2023-04-10T16:17:20.109Z,9.80
2023-04-10T16:19:48.041Z,10.57
2023-04-10T16:22:15.878Z,10.40
2023-04-10T16:24:43.713Z,10.43
2023-04-10T16:27:11.589Z,12.35
2023-04-10T16:29:39.436Z,8.63
2023-04-10T16:32:07.326Z,9.85
2023-04-10T16:34:36.623Z,10.18
2023-04-10T16:37:04.441Z,9.38
2023-04-10T16:39:32.307Z,10.70
2023-04-10T16:42:01.314Z,9.27
2023-04-10T16:44:29.161Z,9.63
2023-04-10T16:46:56.981Z,12.48
2023-04-10T16:49:25.042Z,9.88
2023-04-10T16:51:54.228Z,9.43
2023-04-10T16:54:22.103Z,11.98
2023-04-10T16:56:49.931Z,8.93
2023-04-10T16:59:17.794Z,10.60
2023-04-10T17:01:45.848Z,9.88
2023-04-10T17:04:13.782Z,9.95
2023-04-10T17:06:41.668Z,10.35
2023-04-10T17:09:11.142Z,8.48
2023-04-10T17:11:38.986Z,9.10
2023-04-10T17:14:07.402Z,10.35
2023-04-10T17:16:35.397Z,10.60
2023-04-10T17:19:03.523Z,11.45
2023-04-10T17:21:31.483Z,11.90
2023-04-10T17:23:59.462Z,11.02
2023-04-10T17:26:28.653Z,12.05
2023-04-10T17:28:56.841Z,12.70
2023-04-10T17:31:24.785Z,11.07
2023-04-10T17:33:52.644Z,10.45
2023-04-10T17:36:20.852Z,11.88
2023-04-10T17:38:49.441Z,10.50
2023-04-10T17:41:18.204Z,11.98
2023-04-10T17:43:47.436Z,9.50
2023-04-10T17:46:15.896Z,10.50
2023-04-10T17:48:44.273Z,10.02
2023-04-10T17:51:12.356Z,11.35
2023-04-10T17:53:40.380Z,10.85
2023-04-10T17:56:08.974Z,10.35
2023-04-10T17:58:36.834Z,10.00
2023-04-10T18:01:07.244Z,12.88
2023-04-10T18:03:35.257Z,11.85
2023-04-10T18:06:03.247Z,15.05
2023-04-10T18:08:31.136Z,9.57
2023-04-10T18:10:58.981Z,12.40
2023-04-10T18:13:26.834Z,14.05
2023-04-10T18:15:54.684Z,9.95
2023-04-10T18:18:23.879Z,10.10
2023-04-10T18:20:51.701Z,11.20
2023-04-10T18:23:19.553Z,13.35
2023-04-10T18:25:53.372Z,13.05
2023-04-10T18:28:21.286Z,12.68
2023-04-10T18:30:49.211Z,13.27
2023-04-10T18:33:20.681Z,10.15
2023-04-10T18:35:49.939Z,10.18
2023-04-10T18:38:17.848Z,21.83
2023-04-10T18:40:45.772Z,15.65
2023-04-10T18:43:13.681Z,11.70
2023-04-10T18:45:42.186Z,13.60
2023-04-10T18:48:10.247Z,10.73
2023-04-10T18:50:39.270Z,11.00
2023-04-10T18:53:08.479Z,11.95
2023-04-10T18:55:36.320Z,11.57
2023-04-10T18:58:04.257Z,9.68
2023-04-10T19:00:34.137Z,11.85
2023-04-10T19:03:02.437Z,11.95
2023-04-10T19:05:32.587Z,15.15
2023-04-10T19:08:04.061Z,13.25
2023-04-10T19:10:34.119Z,12.30
2023-04-10T19:13:01.962Z,10.80
2023-04-10T19:15:29.874Z,12.40
2023-04-10T19:17:57.801Z,14.98
2023-04-10T19:20:52.610Z,11.68
2023-04-10T19:23:14.019Z,12.18
2023-04-10T19:25:43.769Z,11.32
2023-04-10T19:28:11.645Z,12.32
2023-04-10T19:30:39.497Z,10.32
2023-04-10T19:33:07.415Z,11.68
2023-04-10T19:35:35.365Z,11.18
2023-04-10T19:38:03.243Z,11.55
2023-04-10T19:40:31.798Z,10.07
2023-04-10T19:43:01.961Z,10.77
2023-04-10T19:45:32.232Z,9.52
2023-04-10T19:48:00.422Z,10.65
2023-04-10T19:50:29.518Z,9.77
2023-04-10T19:52:57.512Z,11.05
2023-04-10T19:55:25.460Z,11.60
2023-04-10T19:57:53.511Z,9.63
2023-04-10T20:00:22.806Z,11.48
2023-04-10T20:02:52.156Z,10.15
2023-04-10T20:05:20.309Z,10.75
2023-04-10T20:07:48.152Z,10.70
2023-04-10T20:10:16.006Z,10.70
2023-04-10T20:12:43.829Z,9.93
2023-04-10T20:15:12.477Z,12.20
2023-04-10T20:17:41.806Z,12.27
2023-04-10T20:20:12.241Z,9.05
2023-04-10T20:22:40.050Z,10.18
2023-04-10T20:25:08.902Z,10.77
2023-04-10T20:27:36.858Z,9.60
2023-04-10T20:30:05.658Z,10.02
2023-04-10T20:32:33.487Z,12.60
2023-04-10T20:35:02.723Z,8.80
2023-04-10T20:37:30.584Z,9.43
2023-04-10T20:39:58.489Z,9.23
2023-04-10T20:42:26.322Z,10.93
2023-04-10T20:44:55.383Z,12.57
2023-04-10T20:47:23.248Z,9.52
2023-04-10T20:49:51.066Z,9.38
2023-04-10T20:52:20.253Z,8.88
2023-04-10T20:54:48.153Z,10.23
2023-04-10T20:57:16.081Z,9.63
2023-04-10T20:59:44.141Z,8.60
2023-04-10T21:02:13.207Z,10.25
2023-04-10T21:04:41.163Z,9.50
2023-04-10T21:07:09.021Z,9.52
2023-04-10T21:09:38.193Z,9.85
2023-04-10T21:12:06.199Z,9.70
2023-04-10T21:14:35.761Z,9.48
2023-04-10T21:17:03.772Z,10.77
2023-04-10T21:19:31.643Z,7.90
2023-04-10T21:21:59.474Z,13.13
2023-04-10T21:24:27.361Z,9.18
2023-04-10T21:26:56.593Z,8.82
2023-04-10T21:29:24.459Z,9.88
2023-04-10T21:31:52.338Z,9.23
2023-04-10T21:34:20.211Z,9.00
2023-04-10T21:36:48.046Z,7.88
2023-04-10T21:39:15.939Z,9.18
2023-04-10T21:41:45.084Z,10.30
2023-04-10T21:44:14.352Z,8.27
2023-04-10T21:46:42.325Z,9.43
2023-04-10T21:49:10.359Z,10.60
2023-04-10T21:51:38.310Z,9.15
2023-04-10T21:54:06.245Z,10.27
2023-04-10T21:56:35.535Z,9.40
2023-04-10T21:59:03.481Z,8.73
2023-04-10T22:01:32.767Z,11.23
2023-04-10T22:04:00.685Z,10.35
2023-04-10T22:06:28.548Z,8.20
2023-04-10T22:08:56.507Z,11.13
2023-04-10T22:11:24.544Z,10.68
2023-04-10T22:13:52.849Z,9.20
2023-04-10T22:16:21.590Z,9.40
2023-04-10T22:18:50.867Z,13.13
2023-04-10T22:21:18.851Z,10.35
2023-04-10T22:23:46.665Z,9.27
2023-04-10T22:26:14.474Z,10.73
2023-04-10T22:28:42.362Z,11.88
2023-04-10T22:31:16.375Z,11.52
2023-04-10T22:33:44.416Z,12.10
2023-04-10T22:36:14.104Z,10.05
2023-04-10T22:38:42.029Z,11.48
2023-04-10T22:41:10.870Z,10.45
2023-04-10T22:43:38.767Z,10.98
2023-04-10T22:46:06.732Z,10.88
2023-04-10T22:48:34.701Z,9.75
2023-04-10T22:51:02.513Z,11.13
2023-04-10T22:53:31.715Z,13.23
2023-04-10T22:55:59.546Z,7.85
2023-04-10T22:58:27.443Z,11.88
2023-04-10T23:00:55.262Z,11.48
2023-04-10T23:03:23.171Z,9.07
2023-04-10T23:05:51.636Z,10.90
2023-04-10T23:08:19.442Z,12.52
2023-04-10T23:10:48.645Z,11.10
2023-04-10T23:13:16.490Z,13.45
2023-04-10T23:15:49.641Z,9.95
2023-04-10T23:18:17.616Z,11.52
2023-04-10T23:20:45.664Z,9.65
2023-04-10T23:23:13.513Z,9.13
2023-04-10T23:25:41.329Z,11.45
2023-04-10T23:28:10.725Z,9.70
2023-04-10T23:30:38.723Z,11.95
2023-04-10T23:33:06.734Z,10.52
2023-04-10T23:35:34.827Z,11.35
2023-04-10T23:38:02.884Z,10.73
2023-04-10T23:40:30.765Z,11.57
2023-04-10T23:42:58.719Z,12.77
2023-04-10T23:45:28.257Z,11.32
2023-04-10T23:47:56.297Z,9.27
2023-04-10T23:50:24.485Z,11.05
2023-04-10T23:52:53.034Z,10.23
2023-04-10T23:55:21.614Z,8.95
2023-04-10T23:57:49.476Z,12.43
